Maple, North Carolina
Current Conditions -  °F | °C
As of 6:55 AM on Monday 22 Dec 2014 (Local Time) from KONX Reporting Station
Moderate Rain Moderate Rain  
Wind Chill: 39°   Ceiling: 900
Heat Index: 45°   Visibility: 4mi
Dew Point: 43°   Wind: 12mph
Humidity: 92%   Direction: 40°NE
Pressure: 30.16"   Gusts: 18mph
Location:  36.41°N, 76°W
Report Text: KONX 221155Z AUTO 04010G16KT 4SM RA BKN009 BKN013 OVC018 07/06 A3016 RMK AO2 P0015 60019 7//// T00730061 10075 20067
Loading
Personal Weather Stations






























Interactive Weather Map New forecast layout! Learn more

10-Day Weather Forecast

Advertisements
Track Severe Weather on mobile